createdAt,value
2018-02-19T00:00:33.889Z,2.60
2018-02-19T00:02:59.921Z,2.60
2018-02-19T00:05:26.866Z,2.50
2018-02-19T00:07:53.038Z,2.50
2018-02-19T00:10:19.141Z,2.50
2018-02-19T00:12:45.396Z,2.50
2018-02-19T00:15:11.653Z,2.60
2018-02-19T00:17:37.722Z,2.60
2018-02-19T00:20:04.680Z,2.70
2018-02-19T00:22:31.597Z,2.80
2018-02-19T00:24:59.711Z,2.70
2018-02-19T00:27:26.136Z,2.60
2018-02-19T00:29:53.086Z,2.60
2018-02-19T00:32:21.878Z,2.60
2018-02-19T00:34:48.743Z,2.50
2018-02-19T00:37:15.931Z,2.50
2018-02-19T00:39:42.091Z,2.60
2018-02-19T00:42:08.172Z,2.60
2018-02-19T00:44:34.312Z,2.60
2018-02-19T00:47:00.603Z,2.60
2018-02-19T00:49:27.509Z,2.50
2018-02-19T00:51:53.663Z,2.50
2018-02-19T00:54:19.796Z,2.60
2018-02-19T00:56:45.960Z,2.40
2018-02-19T00:59:12.237Z,2.50
2018-02-19T01:01:38.321Z,2.50
2018-02-19T01:04:04.875Z,2.50
2018-02-19T01:06:32.054Z,2.50
2018-02-19T01:08:58.408Z,2.40
2018-02-19T01:11:24.530Z,2.50
2018-02-19T01:13:52.040Z,2.40
2018-02-19T01:16:18.253Z,2.50
2018-02-19T01:18:44.348Z,2.60
2018-02-19T01:21:10.841Z,2.70
2018-02-19T01:23:37.704Z,2.20
2018-02-19T01:26:04.975Z,2.10
2018-02-19T01:28:31.242Z,2.00
2018-02-19T01:30:57.488Z,2.00
2018-02-19T01:33:23.692Z,1.90
2018-02-19T01:35:50.349Z,1.90
2018-02-19T01:38:16.378Z,2.00
2018-02-19T01:40:42.691Z,2.10
2018-02-19T01:43:09.422Z,2.00
2018-02-19T01:45:36.361Z,1.80
2018-02-19T01:48:03.421Z,1.80
2018-02-19T01:50:29.665Z,1.70
2018-02-19T01:52:55.787Z,1.70
2018-02-19T01:55:21.995Z,1.70
2018-02-19T01:57:48.130Z,1.60
2018-02-19T02:00:14.766Z,1.50
2018-02-19T02:02:40.923Z,1.30
2018-02-19T02:05:07.234Z,1.30
2018-02-19T02:07:33.550Z,1.30
2018-02-19T02:09:59.705Z,1.40
2018-02-19T02:12:25.888Z,1.40
2018-02-19T02:14:51.988Z,1.40
2018-02-19T02:17:18.458Z,1.30
2018-02-19T02:19:44.706Z,1.30
2018-02-19T02:22:11.255Z,1.20
2018-02-19T02:24:37.355Z,1.30
2018-02-19T02:27:04.235Z,1.10
2018-02-19T02:29:30.405Z,1.10
2018-02-19T02:31:57.404Z,1.00
2018-02-19T02:34:24.480Z,1.00
2018-02-19T02:36:50.703Z,1.00
2018-02-19T02:39:16.911Z,1.00
2018-02-19T02:41:43.076Z,1.00
2018-02-19T02:44:12.161Z,1.00
2018-02-19T02:46:38.255Z,1.00
2018-02-19T02:49:05.193Z,1.00
2018-02-19T02:51:31.452Z,0.90
2018-02-19T02:53:58.322Z,1.00
2018-02-19T02:56:25.137Z,0.90
2018-02-19T02:58:52.096Z,1.00
2018-02-19T03:01:18.386Z,0.90
2018-02-19T03:03:44.512Z,1.00
2018-02-19T03:06:10.637Z,1.00
2018-02-19T03:08:36.822Z,1.00
2018-02-19T03:11:02.983Z,1.10
2018-02-19T03:13:29.154Z,1.10
2018-02-19T03:15:55.326Z,1.10
2018-02-19T03:18:22.215Z,1.20
2018-02-19T03:20:48.452Z,1.10
2018-02-19T03:23:14.542Z,1.10
2018-02-19T03:25:40.801Z,1.10
2018-02-19T03:28:06.909Z,1.00
2018-02-19T03:30:33.000Z,1.00
2018-02-19T03:32:59.244Z,1.00
2018-02-19T03:35:25.489Z,1.00
2018-02-19T03:37:52.766Z,1.00
2018-02-19T03:40:19.794Z,1.00
2018-02-19T03:42:46.691Z,1.20
2018-02-19T03:45:13.895Z,1.20
2018-02-19T03:47:39.966Z,1.10
2018-02-19T03:50:06.359Z,1.00
2018-02-19T03:52:32.446Z,0.90
2018-02-19T03:55:00.286Z,0.80
2018-02-19T03:57:26.450Z,0.70
2018-02-19T03:59:52.570Z,0.50
2018-02-19T04:02:20.349Z,0.50
2018-02-19T04:04:46.472Z,0.70
2018-02-19T04:07:13.386Z,0.80
2018-02-19T04:09:39.511Z,0.90
2018-02-19T04:12:06.505Z,1.00
2018-02-19T04:14:32.944Z,1.00
2018-02-19T04:16:59.108Z,0.90
2018-02-19T04:19:26.138Z,0.90
2018-02-19T04:21:53.407Z,1.00
2018-02-19T04:24:19.539Z,1.00
2018-02-19T04:26:45.561Z,0.90
2018-02-19T04:29:11.682Z,0.80
2018-02-19T04:31:37.827Z,0.80
2018-02-19T04:34:03.903Z,0.70
2018-02-19T04:36:30.767Z,0.70
2018-02-19T04:38:56.939Z,0.60
2018-02-19T04:41:23.257Z,0.80
2018-02-19T04:43:49.371Z,0.80
2018-02-19T04:46:20.080Z,0.70
2018-02-19T04:48:46.419Z,0.70
2018-02-19T04:51:13.618Z,0.70
2018-02-19T04:53:39.748Z,0.60
2018-02-19T04:56:07.400Z,0.70
2018-02-19T04:58:34.549Z,0.70
2018-02-19T05:01:00.629Z,0.70
2018-02-19T05:03:26.860Z,0.80
2018-02-19T05:05:54.309Z,0.70
2018-02-19T05:08:20.391Z,0.80
2018-02-19T05:10:47.385Z,0.70
2018-02-19T05:13:13.884Z,0.70
2018-02-19T05:15:40.467Z,0.70
2018-02-19T05:18:06.634Z,0.70
2018-02-19T05:20:32.845Z,0.60
2018-02-19T05:23:00.039Z,0.60
2018-02-19T05:25:26.203Z,0.70
2018-02-19T05:27:52.364Z,0.60
2018-02-19T05:30:18.453Z,0.80
2018-02-19T05:32:46.315Z,0.90
2018-02-19T05:35:13.156Z,0.80
2018-02-19T05:37:40.040Z,0.70
2018-02-19T05:40:07.532Z,0.60
2018-02-19T05:42:34.106Z,0.60
2018-02-19T05:45:00.431Z,0.60
2018-02-19T05:47:27.628Z,0.60
2018-02-19T05:49:54.403Z,0.60
2018-02-19T05:52:20.442Z,0.40
2018-02-19T05:54:46.467Z,0.50
2018-02-19T05:57:12.817Z,0.60
2018-02-19T05:59:38.878Z,0.60
2018-02-19T06:02:06.704Z,0.50
2018-02-19T06:04:32.967Z,0.50
2018-02-19T06:06:59.621Z,0.50
2018-02-19T06:09:27.614Z,0.50
2018-02-19T06:11:54.511Z,0.60
2018-02-19T06:14:20.779Z,0.60
2018-02-19T06:16:47.785Z,0.50
2018-02-19T06:19:14.366Z,0.50
2018-02-19T06:21:40.410Z,0.40
2018-02-19T06:24:06.548Z,0.50
2018-02-19T06:26:34.376Z,0.50
2018-02-19T06:29:00.549Z,0.40
2018-02-19T06:31:26.971Z,0.40
2018-02-19T06:33:53.890Z,0.50
2018-02-19T06:36:20.174Z,0.40
2018-02-19T06:38:47.975Z,0.40
2018-02-19T06:41:14.636Z,0.30
2018-02-19T06:43:42.859Z,0.40
2018-02-19T06:46:09.786Z,0.50
2018-02-19T06:48:35.968Z,0.40
2018-02-19T06:51:02.156Z,0.40
2018-02-19T06:53:30.339Z,0.30
2018-02-19T06:55:57.342Z,0.50
2018-02-19T06:58:24.101Z,0.40
2018-02-19T07:00:51.762Z,0.50
2018-02-19T07:03:18.343Z,0.40
2018-02-19T07:05:44.570Z,0.30
2018-02-19T07:08:10.769Z,0.40
2018-02-19T07:10:37.075Z,0.30
2018-02-19T07:13:04.959Z,0.60
2018-02-19T07:15:32.036Z,0.50
2018-02-19T07:17:58.231Z,0.60
2018-02-19T07:20:25.482Z,0.60
2018-02-19T07:22:51.574Z,0.50
2018-02-19T07:25:17.723Z,0.70
2018-02-19T07:27:44.746Z,0.80
2018-02-19T07:30:10.943Z,0.70
2018-02-19T07:32:37.233Z,0.70
2018-02-19T07:35:03.902Z,0.70
2018-02-19T07:37:30.932Z,0.60
2018-02-19T07:39:57.150Z,0.60
2018-02-19T07:42:23.789Z,0.60
2018-02-19T07:44:49.919Z,0.60
2018-02-19T07:47:18.027Z,0.60
2018-02-19T07:49:44.714Z,0.60
2018-02-19T07:52:11.765Z,0.60
2018-02-19T07:54:38.014Z,0.70
2018-02-19T07:57:05.669Z,0.80
2018-02-19T07:59:32.412Z,0.80
2018-02-19T08:01:58.704Z,1.00
2018-02-19T08:04:27.390Z,1.10
2018-02-19T08:06:54.168Z,1.10
2018-02-19T08:09:20.582Z,1.10
2018-02-19T08:11:47.411Z,1.20
2018-02-19T08:14:13.649Z,1.20
2018-02-19T08:16:40.683Z,1.30
2018-02-19T08:19:06.794Z,1.30
2018-02-19T08:21:33.656Z,1.30
2018-02-19T08:23:59.936Z,1.30
2018-02-19T08:26:26.121Z,1.30
2018-02-19T08:28:52.347Z,1.40
2018-02-19T08:31:18.702Z,1.30
2018-02-19T08:33:44.858Z,1.40
2018-02-19T08:36:11.293Z,1.60
2018-02-19T08:38:37.498Z,1.80
2018-02-19T08:41:04.442Z,1.90
2018-02-19T08:43:30.681Z,2.00
2018-02-19T08:45:57.426Z,2.00
2018-02-19T08:48:23.685Z,2.00
2018-02-19T08:50:49.929Z,1.90
2018-02-19T08:53:17.499Z,2.00
2018-02-19T08:55:43.697Z,1.90
2018-02-19T08:58:10.341Z,2.00
2018-02-19T09:00:36.567Z,2.00
2018-02-19T09:03:02.861Z,2.10
2018-02-19T09:05:30.073Z,2.10
2018-02-19T09:07:57.504Z,2.10
2018-02-19T09:10:23.647Z,2.20
2018-02-19T09:12:50.278Z,2.30
2018-02-19T09:15:16.348Z,2.30
2018-02-19T09:17:42.507Z,2.50
2018-02-19T09:20:08.951Z,2.60
2018-02-19T09:22:35.072Z,2.70
2018-02-19T09:25:05.746Z,2.90
2018-02-19T09:27:32.002Z,2.90
2018-02-19T09:29:58.218Z,2.90
2018-02-19T09:32:24.384Z,2.90
2018-02-19T09:34:50.407Z,2.80
2018-02-19T09:37:16.490Z,2.80
2018-02-19T09:39:43.350Z,2.90
2018-02-19T09:42:09.879Z,3.00
2018-02-19T09:44:35.970Z,3.00
2018-02-19T09:47:02.200Z,3.10
2018-02-19T09:49:28.367Z,3.10
2018-02-19T09:51:55.656Z,3.40
2018-02-19T09:54:21.894Z,3.40
2018-02-19T09:56:48.017Z,3.40
2018-02-19T09:59:14.882Z,3.60
2018-02-19T10:01:40.977Z,3.50
2018-02-19T10:04:09.525Z,3.70
2018-02-19T10:06:35.573Z,3.70
2018-02-19T10:09:01.620Z,3.70
2018-02-19T10:11:27.800Z,3.70
2018-02-19T10:13:54.115Z,3.80
2018-02-19T10:16:20.646Z,3.80
2018-02-19T10:18:46.884Z,3.90
2018-02-19T10:21:13.126Z,4.00
2018-02-19T10:23:40.777Z,4.20
2018-02-19T10:26:08.255Z,4.20
2018-02-19T10:28:34.435Z,4.20
2018-02-19T10:31:01.431Z,4.20
2018-02-19T10:33:27.796Z,4.10
2018-02-19T10:35:54.112Z,4.30
2018-02-19T10:38:21.292Z,4.20
2018-02-19T10:40:47.419Z,4.20
2018-02-19T10:43:13.561Z,4.20
2018-02-19T10:45:39.715Z,4.20
2018-02-19T10:48:05.993Z,4.30
2018-02-19T10:50:32.269Z,4.40
2018-02-19T10:52:58.566Z,4.40
2018-02-19T10:55:25.617Z,4.40
2018-02-19T10:57:51.898Z,4.40
2018-02-19T11:00:24.364Z,4.40
2018-02-19T11:02:51.599Z,4.40
2018-02-19T11:05:18.033Z,4.40
2018-02-19T11:07:45.799Z,4.50
2018-02-19T11:10:12.046Z,4.50
2018-02-19T11:12:38.562Z,4.50
2018-02-19T11:15:05.019Z,4.50
2018-02-19T11:17:31.534Z,4.40
2018-02-19T11:20:01.358Z,4.80
2018-02-19T11:22:29.141Z,4.90
2018-02-19T11:24:56.559Z,4.90
2018-02-19T11:27:22.655Z,5.00
2018-02-19T11:29:48.836Z,5.10
2018-02-19T11:32:16.185Z,5.10
2018-02-19T11:34:43.186Z,5.30
2018-02-19T11:37:09.510Z,5.30
2018-02-19T11:39:35.893Z,5.50
2018-02-19T11:42:05.130Z,5.60
2018-02-19T11:44:33.449Z,5.50
2018-02-19T11:47:02.036Z,5.50
2018-02-19T11:49:28.222Z,5.60
2018-02-19T11:51:56.883Z,5.60
2018-02-19T11:54:24.005Z,5.80
2018-02-19T11:56:50.283Z,5.90
2018-02-19T11:59:17.959Z,6.00
2018-02-19T12:01:44.218Z,6.10
2018-02-19T12:04:11.469Z,6.10
2018-02-19T12:06:38.110Z,6.10
2018-02-19T12:09:04.714Z,6.20
2018-02-19T12:11:33.124Z,6.10
2018-02-19T12:14:00.392Z,6.10
2018-02-19T12:16:27.318Z,6.00
2018-02-19T12:18:53.394Z,5.90
2018-02-19T12:21:20.591Z,5.90
2018-02-19T12:23:47.515Z,5.80
2018-02-19T12:26:14.642Z,5.60
2018-02-19T12:28:40.821Z,5.50
2018-02-19T12:31:07.349Z,5.50
2018-02-19T12:33:33.455Z,5.40
2018-02-19T12:36:00.109Z,5.30
2018-02-19T12:38:26.237Z,5.40
2018-02-19T12:40:53.695Z,5.40
2018-02-19T12:43:19.830Z,5.60
2018-02-19T12:45:46.037Z,5.60
2018-02-19T12:48:12.276Z,5.60
2018-02-19T12:50:38.450Z,5.60
2018-02-19T12:53:05.115Z,5.60
2018-02-19T12:55:32.017Z,5.50
2018-02-19T12:57:58.286Z,5.50
2018-02-19T13:00:25.505Z,5.60
2018-02-19T13:02:52.508Z,5.60
2018-02-19T13:05:18.838Z,5.50
2018-02-19T13:07:46.370Z,5.60
2018-02-19T13:10:13.104Z,5.70
2018-02-19T13:12:41.159Z,5.60
2018-02-19T13:15:07.630Z,5.90
2018-02-19T13:17:33.893Z,5.80
2018-02-19T13:20:00.181Z,5.80
2018-02-19T13:22:26.750Z,5.80
2018-02-19T13:24:53.097Z,5.80
2018-02-19T13:27:19.372Z,5.90
2018-02-19T13:29:47.350Z,6.20
2018-02-19T13:32:14.444Z,6.20
2018-02-19T13:34:41.395Z,6.40
2018-02-19T13:37:09.100Z,6.40
2018-02-19T13:39:35.312Z,6.50
2018-02-19T13:42:02.535Z,6.50
2018-02-19T13:44:28.796Z,6.40
2018-02-19T13:46:57.789Z,5.90
2018-02-19T13:49:25.460Z,5.60
2018-02-19T13:51:51.932Z,5.60
2018-02-19T13:54:19.073Z,5.80
2018-02-19T13:56:46.401Z,5.80
2018-02-19T13:59:12.672Z,5.80
2018-02-19T14:01:39.508Z,5.80
2018-02-19T14:04:05.833Z,5.80
2018-02-19T14:06:32.110Z,5.80
2018-02-19T14:08:59.521Z,5.70
2018-02-19T14:11:25.612Z,5.70
2018-02-19T14:13:53.108Z,5.50
2018-02-19T14:16:19.739Z,5.50
2018-02-19T14:18:45.915Z,5.50
2018-02-19T14:21:13.826Z,5.40
2018-02-19T14:23:40.786Z,5.40
2018-02-19T14:26:07.471Z,5.30
2018-02-19T14:28:33.969Z,5.40
2018-02-19T14:31:01.214Z,5.40
2018-02-19T14:33:27.397Z,5.40
2018-02-19T14:35:53.647Z,5.30
2018-02-19T14:38:20.066Z,5.40
2018-02-19T14:40:47.939Z,5.30
2018-02-19T14:43:15.312Z,5.20
2018-02-19T14:45:43.123Z,5.20
2018-02-19T14:48:09.979Z,5.20
2018-02-19T14:50:36.215Z,5.20
2018-02-19T14:53:02.483Z,5.10
2018-02-19T14:55:29.721Z,5.10
2018-02-19T14:57:56.052Z,5.10
2018-02-19T15:00:23.534Z,5.00
2018-02-19T15:02:50.510Z,5.00
2018-02-19T15:05:17.020Z,5.00
2018-02-19T15:07:44.548Z,5.00
2018-02-19T15:10:10.999Z,5.00
2018-02-19T15:12:37.377Z,5.00
2018-02-19T15:15:03.948Z,4.90
2018-02-19T15:17:31.004Z,5.10
2018-02-19T15:19:58.023Z,5.00
2018-02-19T15:22:24.607Z,5.00
2018-02-19T15:24:50.960Z,5.00
2018-02-19T15:27:19.194Z,5.00
2018-02-19T15:29:46.420Z,4.90
2018-02-19T15:32:13.604Z,4.90
2018-02-19T15:34:39.770Z,4.90
2018-02-19T15:37:06.864Z,4.90
2018-02-19T15:39:33.037Z,5.00
2018-02-19T15:41:59.357Z,5.00
2018-02-19T15:44:26.138Z,5.00
2018-02-19T15:46:52.365Z,5.00
2018-02-19T15:49:18.527Z,5.10
2018-02-19T15:51:44.746Z,5.20
2018-02-19T15:54:11.854Z,5.00
2018-02-19T15:56:38.005Z,4.90
2018-02-19T15:59:07.233Z,4.80
2018-02-19T16:01:34.770Z,4.70
2018-02-19T16:04:01.155Z,4.60
2018-02-19T16:06:28.237Z,4.60
2018-02-19T16:08:54.559Z,4.70
2018-02-19T16:11:22.566Z,4.70
2018-02-19T16:13:48.841Z,4.70
2018-02-19T16:16:16.513Z,4.60
2018-02-19T16:18:43.585Z,4.60
2018-02-19T16:21:12.238Z,4.60
2018-02-19T16:23:38.866Z,4.60
2018-02-19T16:26:05.840Z,4.60
2018-02-19T16:28:33.707Z,4.60
2018-02-19T16:30:59.963Z,4.50
2018-02-19T16:33:26.382Z,4.50
2018-02-19T16:35:53.061Z,4.50
2018-02-19T16:38:20.167Z,4.50
2018-02-19T16:40:47.961Z,4.40
2018-02-19T16:43:14.590Z,4.40
2018-02-19T16:45:41.549Z,4.50
2018-02-19T16:48:08.900Z,4.40
2018-02-19T16:50:35.104Z,4.40
2018-02-19T16:53:01.358Z,4.40
2018-02-19T16:55:27.519Z,4.40
2018-02-19T16:57:54.813Z,4.30
2018-02-19T17:00:21.764Z,4.20
2018-02-19T17:02:48.191Z,4.30
2018-02-19T17:05:14.389Z,4.20
2018-02-19T17:07:41.549Z,4.20
2018-02-19T17:10:07.903Z,4.20
2018-02-19T17:12:34.077Z,4.30
2018-02-19T17:15:00.295Z,4.30
2018-02-19T17:17:26.524Z,4.20
2018-02-19T17:19:52.838Z,4.10
2018-02-19T17:22:19.525Z,4.20
2018-02-19T17:24:46.038Z,4.20
2018-02-19T17:27:14.036Z,4.20
2018-02-19T17:29:40.755Z,4.10
2018-02-19T17:32:08.440Z,4.10
2018-02-19T17:34:35.608Z,4.20
2018-02-19T17:37:02.995Z,4.10
2018-02-19T17:39:29.340Z,4.10
2018-02-19T17:41:55.838Z,4.10
2018-02-19T17:44:25.145Z,4.10
2018-02-19T17:46:51.510Z,4.00
2018-02-19T17:49:19.693Z,4.00
2018-02-19T17:51:46.010Z,4.00
2018-02-19T17:54:13.997Z,4.00
2018-02-19T17:56:40.166Z,4.00
2018-02-19T17:59:06.504Z,4.00
2018-02-19T18:01:32.944Z,4.00
2018-02-19T18:03:59.719Z,4.00
2018-02-19T18:06:25.835Z,3.90
2018-02-19T18:08:52.303Z,3.90
2018-02-19T18:13:54.057Z,3.80
2018-02-19T18:16:20.688Z,3.70
2018-02-19T18:18:48.559Z,3.70
2018-02-19T18:21:14.726Z,3.70
2018-02-19T18:23:41.064Z,3.70
2018-02-19T18:26:07.451Z,3.80
2018-02-19T18:28:34.497Z,3.80
2018-02-19T18:31:00.683Z,3.70
2018-02-19T18:33:27.378Z,3.80
2018-02-19T18:35:53.397Z,3.70
2018-02-19T18:38:19.487Z,3.70
2018-02-19T18:40:46.603Z,3.70
2018-02-19T18:43:13.239Z,3.60
2018-02-19T18:45:40.143Z,3.70
2018-02-19T18:48:06.411Z,3.70
2018-02-19T18:50:33.281Z,3.60
2018-02-19T18:53:00.320Z,3.60
2018-02-19T18:55:27.313Z,3.60
2018-02-19T18:57:53.974Z,3.60
2018-02-19T19:00:20.485Z,3.60
2018-02-19T19:02:47.547Z,3.60
2018-02-19T19:05:14.095Z,3.60
2018-02-19T19:07:52.762Z,3.60
2018-02-19T19:10:31.197Z,3.50
2018-02-19T19:12:58.040Z,3.50
2018-02-19T19:15:24.919Z,3.50
2018-02-19T19:17:51.831Z,3.50
2018-02-19T19:20:17.950Z,3.50
2018-02-19T19:22:45.833Z,3.60
2018-02-19T19:25:12.584Z,3.60
2018-02-19T19:27:40.236Z,3.60
2018-02-19T19:30:07.487Z,3.60
2018-02-19T19:32:35.197Z,3.60
2018-02-19T19:35:01.269Z,3.50
2018-02-19T19:37:28.763Z,3.50
2018-02-19T19:39:55.078Z,3.50
2018-02-19T19:42:21.334Z,3.50
2018-02-19T19:44:48.524Z,3.40
2018-02-19T19:47:15.183Z,3.50
2018-02-19T19:49:44.111Z,3.50
2018-02-19T19:52:10.943Z,3.50
2018-02-19T19:54:37.495Z,3.40
2018-02-19T19:57:03.931Z,3.50
2018-02-19T19:59:31.211Z,3.50
2018-02-19T20:01:58.681Z,3.40
2018-02-19T20:04:24.904Z,3.40
2018-02-19T20:06:51.084Z,3.40
2018-02-19T20:09:18.396Z,3.30
2018-02-19T20:11:45.462Z,3.20
2018-02-19T20:14:11.609Z,3.30
2018-02-19T20:16:38.601Z,3.20
2018-02-19T20:19:05.505Z,3.40
2018-02-19T20:21:32.004Z,3.30
2018-02-19T20:23:58.299Z,3.20
2018-02-19T20:26:25.069Z,3.20
2018-02-19T20:28:51.222Z,3.20
2018-02-19T20:31:18.012Z,3.20
2018-02-19T20:33:45.022Z,3.20
2018-02-19T20:36:11.464Z,3.20
2018-02-19T20:38:38.442Z,3.10
2018-02-19T20:41:06.442Z,3.10
2018-02-19T20:43:33.686Z,3.10
2018-02-19T20:45:59.973Z,3.10
2018-02-19T20:48:26.145Z,3.20
2018-02-19T20:50:52.250Z,3.10
2018-02-19T20:53:18.380Z,3.10
2018-02-19T20:55:45.290Z,3.00
2018-02-19T20:58:11.725Z,3.00
2018-02-19T21:00:39.063Z,2.90
2018-02-19T21:03:05.234Z,2.90
2018-02-19T21:05:31.911Z,2.90
2018-02-19T21:07:58.839Z,2.90
2018-02-19T21:10:26.575Z,2.90
2018-02-19T21:12:52.832Z,2.90
2018-02-19T21:15:19.299Z,2.90
2018-02-19T21:17:45.466Z,2.90
2018-02-19T21:20:13.040Z,2.90
2018-02-19T21:22:39.462Z,2.90
2018-02-19T21:25:06.058Z,2.90
2018-02-19T21:27:33.008Z,2.90
2018-02-19T21:30:00.464Z,2.90
2018-02-19T21:32:26.562Z,2.80
2018-02-19T21:34:52.803Z,2.90
2018-02-19T21:37:21.229Z,3.00
2018-02-19T21:39:47.394Z,2.90
2018-02-19T21:42:13.919Z,2.90
2018-02-19T21:44:40.063Z,2.90
2018-02-19T21:47:06.196Z,2.90
2018-02-19T21:49:32.437Z,2.80
2018-02-19T21:51:58.744Z,2.80
2018-02-19T21:54:25.267Z,2.90
2018-02-19T21:56:51.435Z,2.90
2018-02-19T21:59:17.640Z,2.90
2018-02-19T22:01:44.827Z,2.90
2018-02-19T22:04:11.325Z,3.00
2018-02-19T22:06:37.439Z,3.00
2018-02-19T22:09:03.632Z,3.00
2018-02-19T22:11:29.632Z,2.90
2018-02-19T22:13:56.516Z,2.80
2018-02-19T22:16:23.643Z,2.70
2018-02-19T22:18:51.225Z,2.90
2018-02-19T22:21:18.282Z,2.80
2018-02-19T22:23:45.407Z,2.90
2018-02-19T22:26:13.318Z,2.90
2018-02-19T22:28:39.952Z,2.90
2018-02-19T22:31:07.133Z,3.00
2018-02-19T22:33:34.495Z,2.90
2018-02-19T22:36:00.827Z,2.90
2018-02-19T22:38:27.045Z,2.90
2018-02-19T22:40:53.882Z,2.90
2018-02-19T22:43:20.290Z,2.90
2018-02-19T22:45:46.349Z,2.90
2018-02-19T22:48:12.463Z,2.90
2018-02-19T22:50:40.271Z,2.90
2018-02-19T22:53:06.445Z,2.80
2018-02-19T22:55:32.535Z,2.90
2018-02-19T22:57:59.340Z,2.90
2018-02-19T23:00:26.457Z,2.90
2018-02-19T23:02:53.771Z,2.80
2018-02-19T23:05:20.196Z,2.90
2018-02-19T23:07:47.183Z,2.80
2018-02-19T23:10:15.114Z,2.80
2018-02-19T23:12:41.403Z,2.80
2018-02-19T23:15:08.066Z,2.80
2018-02-19T23:17:34.668Z,2.80
2018-02-19T23:20:00.788Z,2.80
2018-02-19T23:22:26.815Z,2.80
2018-02-19T23:24:54.690Z,2.90
2018-02-19T23:27:21.897Z,2.80
2018-02-19T23:29:49.637Z,2.80
2018-02-19T23:32:15.843Z,2.70
2018-02-19T23:34:42.975Z,2.80
2018-02-19T23:37:09.113Z,2.80
2018-02-19T23:39:35.290Z,2.80
2018-02-19T23:42:01.415Z,2.80
2018-02-19T23:44:27.679Z,2.80
2018-02-19T23:46:53.935Z,2.80
2018-02-19T23:49:20.209Z,2.80
2018-02-19T23:51:46.323Z,2.70
2018-02-19T23:54:20.000Z,2.70
2018-02-19T23:56:46.238Z,2.60
2018-02-19T23:59:12.385Z,2.70
